sensor_id;sensor_type;location;lat;lon;timestamp;temperature;humidity
14771;DHT22;7477;45.222;5.688;2023-05-10T00:02:45;14.40;99.90
14771;DHT22;7477;45.222;5.688;2023-05-10T00:06:05;14.40;99.90
14771;DHT22;7477;45.222;5.688;2023-05-10T00:09:24;14.50;99.90
14771;DHT22;7477;45.222;5.688;2023-05-10T00:12:44;14.60;99.90
14771;DHT22;7477;45.222;5.688;2023-05-10T00:16:03;14.30;99.90
14771;DHT22;7477;45.222;5.688;2023-05-10T00:19:23;14.10;99.90
14771;DHT22;7477;45.222;5.688;2023-05-10T00:22:42;14.10;99.90
14771;DHT22;7477;45.222;5.688;2023-05-10T00:26:01;14.10;99.90
14771;DHT22;7477;45.222;5.688;2023-05-10T00:29:21;14.10;99.90
14771;DHT22;7477;45.222;5.688;2023-05-10T00:32:40;14.00;99.90
14771;DHT22;7477;45.222;5.688;2023-05-10T00:35:59;14.00;99.90
14771;DHT22;7477;45.222;5.688;2023-05-10T00:39:19;13.90;99.90
14771;DHT22;7477;45.222;5.688;2023-05-10T00:42:38;13.90;99.90
14771;DHT22;7477;45.222;5.688;2023-05-10T00:45:57;14.00;99.90
14771;DHT22;7477;45.222;5.688;2023-05-10T00:49:17;14.00;99.90
14771;DHT22;7477;45.222;5.688;2023-05-10T00:52:37;14.00;99.90
14771;DHT22;7477;45.222;5.688;2023-05-10T00:55:56;13.90;99.90
14771;DHT22;7477;45.222;5.688;2023-05-10T00:59:16;13.90;99.90
14771;DHT22;7477;45.222;5.688;2023-05-10T01:02:36;13.90;99.90
14771;DHT22;7477;45.222;5.688;2023-05-10T01:05:55;13.90;99.90
14771;DHT22;7477;45.222;5.688;2023-05-10T01:09:14;13.90;99.90
14771;DHT22;7477;45.222;5.688;2023-05-10T01:12:36;13.80;99.90
14771;DHT22;7477;45.222;5.688;2023-05-10T01:15:56;13.80;99.90
14771;DHT22;7477;45.222;5.688;2023-05-10T01:19:22;13.80;99.90
14771;DHT22;7477;45.222;5.688;2023-05-10T01:33:58;13.80;99.90
14771;DHT22;7477;45.222;5.688;2023-05-10T01:37:27;13.70;99.90
14771;DHT22;7477;45.222;5.688;2023-05-10T01:44:39;13.60;99.90
14771;DHT22;7477;45.222;5.688;2023-05-10T01:48:11;13.50;99.90
14771;DHT22;7477;45.222;5.688;2023-05-10T01:51:44;13.40;99.90
14771;DHT22;7477;45.222;5.688;2023-05-10T01:55:08;13.40;99.90
14771;DHT22;7477;45.222;5.688;2023-05-10T01:58:31;13.30;99.90
14771;DHT22;7477;45.222;5.688;2023-05-10T02:01:52;13.40;99.90
14771;DHT22;7477;45.222;5.688;2023-05-10T02:05:13;13.50;99.90
14771;DHT22;7477;45.222;5.688;2023-05-10T02:08:35;13.40;99.90
14771;DHT22;7477;45.222;5.688;2023-05-10T02:11:57;13.50;99.90
14771;DHT22;7477;45.222;5.688;2023-05-10T02:15:23;13.50;99.90
14771;DHT22;7477;45.222;5.688;2023-05-10T02:18:44;13.50;99.90
14771;DHT22;7477;45.222;5.688;2023-05-10T02:22:04;13.50;99.90
14771;DHT22;7477;45.222;5.688;2023-05-10T02:25:24;13.50;99.90
14771;DHT22;7477;45.222;5.688;2023-05-10T02:28:45;13.50;99.90
14771;DHT22;7477;45.222;5.688;2023-05-10T02:32:05;13.60;99.90
14771;DHT22;7477;45.222;5.688;2023-05-10T02:35:26;13.60;99.90
14771;DHT22;7477;45.222;5.688;2023-05-10T02:38:47;13.60;99.90
14771;DHT22;7477;45.222;5.688;2023-05-10T02:42:07;13.60;99.90
14771;DHT22;7477;45.222;5.688;2023-05-10T02:45:30;13.70;99.90
14771;DHT22;7477;45.222;5.688;2023-05-10T02:48:50;13.60;99.90
14771;DHT22;7477;45.222;5.688;2023-05-10T02:52:10;13.60;99.90
14771;DHT22;7477;45.222;5.688;2023-05-10T02:55:37;13.60;99.90
14771;DHT22;7477;45.222;5.688;2023-05-10T02:58:57;13.60;99.90
14771;DHT22;7477;45.222;5.688;2023-05-10T03:02:16;13.60;99.90
14771;DHT22;7477;45.222;5.688;2023-05-10T03:05:35;13.60;99.90
14771;DHT22;7477;45.222;5.688;2023-05-10T03:08:55;13.50;99.90
14771;DHT22;7477;45.222;5.688;2023-05-10T03:16:30;13.60;99.90
14771;DHT22;7477;45.222;5.688;2023-05-10T03:19:56;13.50;99.90
14771;DHT22;7477;45.222;5.688;2023-05-10T03:23:43;13.40;99.90
14771;DHT22;7477;45.222;5.688;2023-05-10T03:27:03;13.30;99.90
14771;DHT22;7477;45.222;5.688;2023-05-10T03:30:24;13.20;99.90
14771;DHT22;7477;45.222;5.688;2023-05-10T03:33:48;13.20;99.90
14771;DHT22;7477;45.222;5.688;2023-05-10T03:37:07;13.20;99.90
14771;DHT22;7477;45.222;5.688;2023-05-10T03:40:27;13.20;99.90
14771;DHT22;7477;45.222;5.688;2023-05-10T03:43:47;13.10;99.90
14771;DHT22;7477;45.222;5.688;2023-05-10T03:47:06;13.10;99.90
14771;DHT22;7477;45.222;5.688;2023-05-10T03:50:26;13.10;99.90
14771;DHT22;7477;45.222;5.688;2023-05-10T03:53:45;13.00;99.90
14771;DHT22;7477;45.222;5.688;2023-05-10T03:57:05;13.10;99.90
14771;DHT22;7477;45.222;5.688;2023-05-10T04:00:24;13.10;99.90
14771;DHT22;7477;45.222;5.688;2023-05-10T04:03:43;13.10;99.90
14771;DHT22;7477;45.222;5.688;2023-05-10T04:07:03;13.10;99.90
14771;DHT22;7477;45.222;5.688;2023-05-10T04:10:22;13.10;99.90
14771;DHT22;7477;45.222;5.688;2023-05-10T04:13:41;13.00;99.90
14771;DHT22;7477;45.222;5.688;2023-05-10T04:17:02;12.90;99.90
14771;DHT22;7477;45.222;5.688;2023-05-10T04:20:21;12.80;99.90
14771;DHT22;7477;45.222;5.688;2023-05-10T04:23:41;12.80;99.90
14771;DHT22;7477;45.222;5.688;2023-05-10T04:27:00;12.70;99.90
14771;DHT22;7477;45.222;5.688;2023-05-10T04:30:19;12.70;99.90
14771;DHT22;7477;45.222;5.688;2023-05-10T04:33:39;12.60;99.90
14771;DHT22;7477;45.222;5.688;2023-05-10T04:36:58;12.50;99.90
14771;DHT22;7477;45.222;5.688;2023-05-10T04:40:17;12.50;99.90
14771;DHT22;7477;45.222;5.688;2023-05-10T04:43:37;12.40;99.90
14771;DHT22;7477;45.222;5.688;2023-05-10T04:46:57;12.40;99.90
14771;DHT22;7477;45.222;5.688;2023-05-10T04:50:16;12.30;99.90
14771;DHT22;7477;45.222;5.688;2023-05-10T04:53:36;12.40;99.90
14771;DHT22;7477;45.222;5.688;2023-05-10T04:56:55;12.30;99.90
14771;DHT22;7477;45.222;5.688;2023-05-10T05:00:15;12.30;99.90
14771;DHT22;7477;45.222;5.688;2023-05-10T05:03:34;12.30;99.90
14771;DHT22;7477;45.222;5.688;2023-05-10T05:06:53;12.30;99.90
14771;DHT22;7477;45.222;5.688;2023-05-10T05:10:12;12.20;99.90
14771;DHT22;7477;45.222;5.688;2023-05-10T05:13:32;12.20;99.90
14771;DHT22;7477;45.222;5.688;2023-05-10T05:16:51;12.20;99.90
14771;DHT22;7477;45.222;5.688;2023-05-10T05:20:11;12.20;99.90
14771;DHT22;7477;45.222;5.688;2023-05-10T05:23:30;12.30;99.90
14771;DHT22;7477;45.222;5.688;2023-05-10T05:26:50;12.20;99.90
14771;DHT22;7477;45.222;5.688;2023-05-10T05:30:09;12.20;99.90
14771;DHT22;7477;45.222;5.688;2023-05-10T05:33:28;12.20;99.90
14771;DHT22;7477;45.222;5.688;2023-05-10T05:36:48;12.10;99.90
14771;DHT22;7477;45.222;5.688;2023-05-10T05:40:07;12.10;99.90
14771;DHT22;7477;45.222;5.688;2023-05-10T05:43:27;12.20;99.90
14771;DHT22;7477;45.222;5.688;2023-05-10T05:46:46;12.10;99.90
14771;DHT22;7477;45.222;5.688;2023-05-10T05:50:06;12.10;99.90
14771;DHT22;7477;45.222;5.688;2023-05-10T05:53:25;12.20;99.90
14771;DHT22;7477;45.222;5.688;2023-05-10T05:56:45;12.10;99.90
14771;DHT22;7477;45.222;5.688;2023-05-10T06:00:05;12.00;99.90
14771;DHT22;7477;45.222;5.688;2023-05-10T06:03:24;12.00;99.90
14771;DHT22;7477;45.222;5.688;2023-05-10T06:06:44;12.10;99.90
14771;DHT22;7477;45.222;5.688;2023-05-10T06:10:04;12.10;99.90
14771;DHT22;7477;45.222;5.688;2023-05-10T06:13:24;12.10;99.90
14771;DHT22;7477;45.222;5.688;2023-05-10T06:16:44;12.10;99.90
14771;DHT22;7477;45.222;5.688;2023-05-10T06:20:04;12.20;99.90
14771;DHT22;7477;45.222;5.688;2023-05-10T06:23:24;12.20;99.90
14771;DHT22;7477;45.222;5.688;2023-05-10T06:26:44;12.30;99.90
14771;DHT22;7477;45.222;5.688;2023-05-10T06:30:04;12.20;99.90
14771;DHT22;7477;45.222;5.688;2023-05-10T06:33:24;12.20;99.90
14771;DHT22;7477;45.222;5.688;2023-05-10T06:36:43;12.30;99.90
14771;DHT22;7477;45.222;5.688;2023-05-10T06:40:04;12.20;99.90
14771;DHT22;7477;45.222;5.688;2023-05-10T06:43:23;12.20;99.90
14771;DHT22;7477;45.222;5.688;2023-05-10T06:46:43;12.20;99.90
14771;DHT22;7477;45.222;5.688;2023-05-10T06:50:03;12.10;99.90
14771;DHT22;7477;45.222;5.688;2023-05-10T06:53:22;12.00;99.90
14771;DHT22;7477;45.222;5.688;2023-05-10T06:56:41;12.10;99.90
14771;DHT22;7477;45.222;5.688;2023-05-10T07:00:01;12.10;99.90
14771;DHT22;7477;45.222;5.688;2023-05-10T07:03:22;12.00;99.90
14771;DHT22;7477;45.222;5.688;2023-05-10T07:06:41;11.90;99.90
14771;DHT22;7477;45.222;5.688;2023-05-10T07:10:01;11.90;99.90
14771;DHT22;7477;45.222;5.688;2023-05-10T07:13:20;12.00;99.90
14771;DHT22;7477;45.222;5.688;2023-05-10T07:16:39;12.00;99.90
14771;DHT22;7477;45.222;5.688;2023-05-10T07:19:59;12.10;99.90
14771;DHT22;7477;45.222;5.688;2023-05-10T07:23:19;12.10;99.90
14771;DHT22;7477;45.222;5.688;2023-05-10T07:26:38;12.20;99.90
14771;DHT22;7477;45.222;5.688;2023-05-10T07:29:58;12.20;99.90
14771;DHT22;7477;45.222;5.688;2023-05-10T07:33:18;12.20;99.90
14771;DHT22;7477;45.222;5.688;2023-05-10T07:36:37;12.30;99.90
14771;DHT22;7477;45.222;5.688;2023-05-10T07:39:56;12.40;99.90
14771;DHT22;7477;45.222;5.688;2023-05-10T07:43:15;12.40;99.90
14771;DHT22;7477;45.222;5.688;2023-05-10T07:46:34;12.50;99.90
14771;DHT22;7477;45.222;5.688;2023-05-10T07:49:53;12.40;99.90
14771;DHT22;7477;45.222;5.688;2023-05-10T07:53:12;12.40;99.90
14771;DHT22;7477;45.222;5.688;2023-05-10T07:56:32;12.40;99.90
14771;DHT22;7477;45.222;5.688;2023-05-10T07:59:51;12.40;99.90
14771;DHT22;7477;45.222;5.688;2023-05-10T08:03:10;12.40;99.90
14771;DHT22;7477;45.222;5.688;2023-05-10T08:06:30;12.50;99.90
14771;DHT22;7477;45.222;5.688;2023-05-10T08:09:49;12.50;99.90
14771;DHT22;7477;45.222;5.688;2023-05-10T08:13:08;12.50;99.90
14771;DHT22;7477;45.222;5.688;2023-05-10T08:16:27;12.60;99.90
14771;DHT22;7477;45.222;5.688;2023-05-10T08:19:47;12.90;99.90
14771;DHT22;7477;45.222;5.688;2023-05-10T08:23:06;13.10;99.90
14771;DHT22;7477;45.222;5.688;2023-05-10T08:26:26;13.20;99.90
14771;DHT22;7477;45.222;5.688;2023-05-10T08:29:45;13.10;99.90
14771;DHT22;7477;45.222;5.688;2023-05-10T08:33:04;13.10;99.90
14771;DHT22;7477;45.222;5.688;2023-05-10T08:36:24;13.10;99.90
14771;DHT22;7477;45.222;5.688;2023-05-10T08:39:43;13.10;99.90
14771;DHT22;7477;45.222;5.688;2023-05-10T08:43:09;13.10;99.90
14771;DHT22;7477;45.222;5.688;2023-05-10T08:46:30;13.10;99.90
14771;DHT22;7477;45.222;5.688;2023-05-10T08:49:52;13.10;99.90
14771;DHT22;7477;45.222;5.688;2023-05-10T08:53:13;13.10;99.90
14771;DHT22;7477;45.222;5.688;2023-05-10T08:56:34;13.20;99.90
14771;DHT22;7477;45.222;5.688;2023-05-10T08:59:53;13.20;99.90
14771;DHT22;7477;45.222;5.688;2023-05-10T09:03:13;13.20;99.90
14771;DHT22;7477;45.222;5.688;2023-05-10T09:06:33;13.30;99.90
14771;DHT22;7477;45.222;5.688;2023-05-10T09:09:54;13.30;99.90
14771;DHT22;7477;45.222;5.688;2023-05-10T09:13:14;13.40;99.90
14771;DHT22;7477;45.222;5.688;2023-05-10T09:16:34;13.40;99.90
14771;DHT22;7477;45.222;5.688;2023-05-10T09:20:00;13.80;99.90
14771;DHT22;7477;45.222;5.688;2023-05-10T09:23:22;14.00;99.90
14771;DHT22;7477;45.222;5.688;2023-05-10T09:26:47;14.10;99.90
14771;DHT22;7477;45.222;5.688;2023-05-10T09:30:10;14.30;99.90
14771;DHT22;7477;45.222;5.688;2023-05-10T09:33:44;14.30;99.90
14771;DHT22;7477;45.222;5.688;2023-05-10T09:37:04;14.30;99.90
14771;DHT22;7477;45.222;5.688;2023-05-10T09:40:24;14.20;99.90
14771;DHT22;7477;45.222;5.688;2023-05-10T09:43:44;14.40;99.90
14771;DHT22;7477;45.222;5.688;2023-05-10T09:47:04;14.30;99.90
14771;DHT22;7477;45.222;5.688;2023-05-10T09:50:23;14.20;99.90
14771;DHT22;7477;45.222;5.688;2023-05-10T09:53:43;14.20;99.90
14771;DHT22;7477;45.222;5.688;2023-05-10T09:57:02;14.20;99.90
14771;DHT22;7477;45.222;5.688;2023-05-10T10:00:22;14.20;99.90
14771;DHT22;7477;45.222;5.688;2023-05-10T10:03:42;14.30;99.90
14771;DHT22;7477;45.222;5.688;2023-05-10T10:07:03;14.40;99.90
14771;DHT22;7477;45.222;5.688;2023-05-10T10:10:27;14.60;99.90
14771;DHT22;7477;45.222;5.688;2023-05-10T10:13:47;14.80;99.90
14771;DHT22;7477;45.222;5.688;2023-05-10T10:17:06;15.00;99.90
14771;DHT22;7477;45.222;5.688;2023-05-10T10:20:27;15.00;99.90
14771;DHT22;7477;45.222;5.688;2023-05-10T10:23:47;15.00;99.90
14771;DHT22;7477;45.222;5.688;2023-05-10T10:27:31;14.90;99.90
14771;DHT22;7477;45.222;5.688;2023-05-10T10:30:54;15.10;99.90
14771;DHT22;7477;45.222;5.688;2023-05-10T10:34:25;15.30;99.90
14771;DHT22;7477;45.222;5.688;2023-05-10T10:37:50;15.40;99.90
14771;DHT22;7477;45.222;5.688;2023-05-10T10:41:27;15.30;99.90
14771;DHT22;7477;45.222;5.688;2023-05-10T10:44:47;15.30;99.90
14771;DHT22;7477;45.222;5.688;2023-05-10T10:48:23;15.50;99.00
14771;DHT22;7477;45.222;5.688;2023-05-10T10:55:34;15.40;98.50
14771;DHT22;7477;45.222;5.688;2023-05-10T10:58:59;15.40;98.50
14771;DHT22;7477;45.222;5.688;2023-05-10T11:02:46;15.30;99.30
14771;DHT22;7477;45.222;5.688;2023-05-10T11:06:07;15.60;99.60
14771;DHT22;7477;45.222;5.688;2023-05-10T11:09:27;15.70;98.80
14771;DHT22;7477;45.222;5.688;2023-05-10T11:13:03;15.70;98.60
14771;DHT22;7477;45.222;5.688;2023-05-10T11:16:24;15.80;98.70
14771;DHT22;7477;45.222;5.688;2023-05-10T11:20:13;15.60;99.90
14771;DHT22;7477;45.222;5.688;2023-05-10T11:27:06;15.20;99.90
14771;DHT22;7477;45.222;5.688;2023-05-10T11:30:26;14.90;99.90
14771;DHT22;7477;45.222;5.688;2023-05-10T11:33:46;14.80;99.90
14771;DHT22;7477;45.222;5.688;2023-05-10T11:37:05;14.70;99.90
14771;DHT22;7477;45.222;5.688;2023-05-10T11:40:24;14.60;99.90
14771;DHT22;7477;45.222;5.688;2023-05-10T11:43:53;14.50;99.90
14771;DHT22;7477;45.222;5.688;2023-05-10T11:47:12;14.40;99.90
14771;DHT22;7477;45.222;5.688;2023-05-10T11:50:32;14.30;99.90
14771;DHT22;7477;45.222;5.688;2023-05-10T11:53:56;14.50;99.90
14771;DHT22;7477;45.222;5.688;2023-05-10T11:57:16;14.50;99.90
14771;DHT22;7477;45.222;5.688;2023-05-10T12:00:37;14.40;99.90
14771;DHT22;7477;45.222;5.688;2023-05-10T12:03:57;14.50;99.90
14771;DHT22;7477;45.222;5.688;2023-05-10T12:07:18;14.50;99.90
14771;DHT22;7477;45.222;5.688;2023-05-10T12:10:38;14.50;99.90
14771;DHT22;7477;45.222;5.688;2023-05-10T12:13:57;14.50;99.90
14771;DHT22;7477;45.222;5.688;2023-05-10T12:17:17;14.60;99.90
14771;DHT22;7477;45.222;5.688;2023-05-10T12:20:36;14.70;99.90
14771;DHT22;7477;45.222;5.688;2023-05-10T12:24:01;14.80;99.90
14771;DHT22;7477;45.222;5.688;2023-05-10T12:27:20;14.90;99.90
14771;DHT22;7477;45.222;5.688;2023-05-10T12:30:39;15.20;99.90
14771;DHT22;7477;45.222;5.688;2023-05-10T12:33:58;15.10;99.90
14771;DHT22;7477;45.222;5.688;2023-05-10T12:37:24;15.30;99.90
14771;DHT22;7477;45.222;5.688;2023-05-10T12:40:43;15.30;99.90
14771;DHT22;7477;45.222;5.688;2023-05-10T12:44:02;15.30;99.90
14771;DHT22;7477;45.222;5.688;2023-05-10T12:47:21;15.30;99.60
14771;DHT22;7477;45.222;5.688;2023-05-10T12:50:41;15.30;99.80
14771;DHT22;7477;45.222;5.688;2023-05-10T12:54:00;15.30;99.00
14771;DHT22;7477;45.222;5.688;2023-05-10T12:57:22;15.50;98.90
14771;DHT22;7477;45.222;5.688;2023-05-10T13:00:42;15.50;98.60
14771;DHT22;7477;45.222;5.688;2023-05-10T13:04:02;15.60;98.80
14771;DHT22;7477;45.222;5.688;2023-05-10T13:07:21;15.70;98.00
14771;DHT22;7477;45.222;5.688;2023-05-10T13:10:40;15.80;98.30
14771;DHT22;7477;45.222;5.688;2023-05-10T13:13:59;16.00;97.90
14771;DHT22;7477;45.222;5.688;2023-05-10T13:17:19;16.00;97.90
14771;DHT22;7477;45.222;5.688;2023-05-10T13:20:39;16.10;97.80
14771;DHT22;7477;45.222;5.688;2023-05-10T13:23:58;16.00;97.70
14771;DHT22;7477;45.222;5.688;2023-05-10T13:27:17;16.10;97.10
14771;DHT22;7477;45.222;5.688;2023-05-10T13:30:37;16.20;97.90
14771;DHT22;7477;45.222;5.688;2023-05-10T13:33:56;16.40;96.90
14771;DHT22;7477;45.222;5.688;2023-05-10T13:37:15;16.30;96.90
14771;DHT22;7477;45.222;5.688;2023-05-10T13:40:34;16.20;96.80
14771;DHT22;7477;45.222;5.688;2023-05-10T13:43:54;16.10;96.90
14771;DHT22;7477;45.222;5.688;2023-05-10T13:47:13;16.10;96.70
14771;DHT22;7477;45.222;5.688;2023-05-10T13:50:33;16.10;96.50
14771;DHT22;7477;45.222;5.688;2023-05-10T13:53:52;16.60;95.70
14771;DHT22;7477;45.222;5.688;2023-05-10T13:57:11;16.90;95.60
14771;DHT22;7477;45.222;5.688;2023-05-10T14:00:32;16.80;95.80
14771;DHT22;7477;45.222;5.688;2023-05-10T14:03:52;16.70;96.70
14771;DHT22;7477;45.222;5.688;2023-05-10T14:07:12;16.90;96.80
14771;DHT22;7477;45.222;5.688;2023-05-10T14:10:31;16.80;95.70
14771;DHT22;7477;45.222;5.688;2023-05-10T14:13:50;16.90;96.20
14771;DHT22;7477;45.222;5.688;2023-05-10T14:17:09;17.20;95.40
14771;DHT22;7477;45.222;5.688;2023-05-10T14:20:29;17.30;94.00
14771;DHT22;7477;45.222;5.688;2023-05-10T14:23:48;17.50;93.60
14771;DHT22;7477;45.222;5.688;2023-05-10T14:27:07;17.30;94.20
14771;DHT22;7477;45.222;5.688;2023-05-10T14:30:27;16.80;94.00
14771;DHT22;7477;45.222;5.688;2023-05-10T14:33:47;16.70;94.30
14771;DHT22;7477;45.222;5.688;2023-05-10T14:37:06;16.60;94.60
14771;DHT22;7477;45.222;5.688;2023-05-10T14:40:25;16.50;94.20
14771;DHT22;7477;45.222;5.688;2023-05-10T14:43:44;16.80;94.80
14771;DHT22;7477;45.222;5.688;2023-05-10T14:47:04;17.40;93.60
14771;DHT22;7477;45.222;5.688;2023-05-10T14:50:23;17.30;93.30
14771;DHT22;7477;45.222;5.688;2023-05-10T14:53:42;17.10;93.90
14771;DHT22;7477;45.222;5.688;2023-05-10T14:57:02;17.20;93.40
14771;DHT22;7477;45.222;5.688;2023-05-10T15:00:21;16.80;93.40
14771;DHT22;7477;45.222;5.688;2023-05-10T15:03:41;16.50;93.80
14771;DHT22;7477;45.222;5.688;2023-05-10T15:07:00;16.20;94.50
14771;DHT22;7477;45.222;5.688;2023-05-10T15:10:19;16.20;95.00
14771;DHT22;7477;45.222;5.688;2023-05-10T15:13:38;16.10;95.20
14771;DHT22;7477;45.222;5.688;2023-05-10T15:16:57;16.00;95.00
14771;DHT22;7477;45.222;5.688;2023-05-10T15:20:16;15.90;95.10
14771;DHT22;7477;45.222;5.688;2023-05-10T15:23:36;16.00;95.40
14771;DHT22;7477;45.222;5.688;2023-05-10T15:26:56;16.30;95.70
14771;DHT22;7477;45.222;5.688;2023-05-10T15:30:15;16.00;96.10
14771;DHT22;7477;45.222;5.688;2023-05-10T15:33:35;15.90;96.20
14771;DHT22;7477;45.222;5.688;2023-05-10T15:36:55;15.90;95.40
14771;DHT22;7477;45.222;5.688;2023-05-10T15:40:14;15.90;94.80
14771;DHT22;7477;45.222;5.688;2023-05-10T15:43:34;15.90;94.10
14771;DHT22;7477;45.222;5.688;2023-05-10T15:46:53;16.00;93.40
14771;DHT22;7477;45.222;5.688;2023-05-10T15:50:12;16.10;93.50
14771;DHT22;7477;45.222;5.688;2023-05-10T15:53:31;16.20;93.50
14771;DHT22;7477;45.222;5.688;2023-05-10T15:56:50;16.90;92.50
14771;DHT22;7477;45.222;5.688;2023-05-10T16:00:11;17.10;92.00
14771;DHT22;7477;45.222;5.688;2023-05-10T16:03:32;16.90;93.10
14771;DHT22;7477;45.222;5.688;2023-05-10T16:06:51;16.90;92.40
14771;DHT22;7477;45.222;5.688;2023-05-10T16:10:11;17.20;91.60
14771;DHT22;7477;45.222;5.688;2023-05-10T16:13:33;17.70;92.10
14771;DHT22;7477;45.222;5.688;2023-05-10T16:16:53;18.00;91.80
14771;DHT22;7477;45.222;5.688;2023-05-10T16:20:12;18.20;90.80
14771;DHT22;7477;45.222;5.688;2023-05-10T16:23:31;18.00;90.60
14771;DHT22;7477;45.222;5.688;2023-05-10T16:26:50;17.60;91.10
14771;DHT22;7477;45.222;5.688;2023-05-10T16:30:09;17.00;91.50
14771;DHT22;7477;45.222;5.688;2023-05-10T16:33:29;16.80;91.70
14771;DHT22;7477;45.222;5.688;2023-05-10T16:36:48;16.70;92.00
14771;DHT22;7477;45.222;5.688;2023-05-10T16:40:07;16.60;92.20
14771;DHT22;7477;45.222;5.688;2023-05-10T16:43:27;16.60;92.90
14771;DHT22;7477;45.222;5.688;2023-05-10T16:46:46;16.50;93.00
14771;DHT22;7477;45.222;5.688;2023-05-10T16:50:06;16.40;92.50
14771;DHT22;7477;45.222;5.688;2023-05-10T16:53:26;16.50;93.00
14771;DHT22;7477;45.222;5.688;2023-05-10T16:56:46;16.50;93.40
14771;DHT22;7477;45.222;5.688;2023-05-10T17:00:06;16.40;93.80
14771;DHT22;7477;45.222;5.688;2023-05-10T17:03:26;16.30;93.70
14771;DHT22;7477;45.222;5.688;2023-05-10T17:06:46;16.30;94.10
14771;DHT22;7477;45.222;5.688;2023-05-10T17:10:05;16.20;94.40
14771;DHT22;7477;45.222;5.688;2023-05-10T17:13:25;16.10;94.30
14771;DHT22;7477;45.222;5.688;2023-05-10T17:16:45;16.20;94.60
14771;DHT22;7477;45.222;5.688;2023-05-10T17:20:06;16.10;94.30
14771;DHT22;7477;45.222;5.688;2023-05-10T17:23:26;16.10;94.80
14771;DHT22;7477;45.222;5.688;2023-05-10T17:26:45;16.10;94.90
14771;DHT22;7477;45.222;5.688;2023-05-10T17:30:05;15.90;94.60
14771;DHT22;7477;45.222;5.688;2023-05-10T17:33:25;16.00;95.20
14771;DHT22;7477;45.222;5.688;2023-05-10T17:36:44;15.90;95.20
14771;DHT22;7477;45.222;5.688;2023-05-10T17:40:04;15.90;95.40
14771;DHT22;7477;45.222;5.688;2023-05-10T17:43:25;15.80;95.30
14771;DHT22;7477;45.222;5.688;2023-05-10T17:46:44;15.70;95.20
14771;DHT22;7477;45.222;5.688;2023-05-10T17:50:04;15.80;95.00
14771;DHT22;7477;45.222;5.688;2023-05-10T17:53:24;15.70;95.20
14771;DHT22;7477;45.222;5.688;2023-05-10T17:56:43;15.60;95.40
14771;DHT22;7477;45.222;5.688;2023-05-10T18:00:03;15.50;95.90
14771;DHT22;7477;45.222;5.688;2023-05-10T18:03:24;15.50;95.90
14771;DHT22;7477;45.222;5.688;2023-05-10T18:06:44;15.40;96.20
14771;DHT22;7477;45.222;5.688;2023-05-10T18:10:03;15.40;96.30
14771;DHT22;7477;45.222;5.688;2023-05-10T18:13:22;15.30;96.20
14771;DHT22;7477;45.222;5.688;2023-05-10T18:16:43;15.20;96.10
14771;DHT22;7477;45.222;5.688;2023-05-10T18:20:03;15.20;95.90
14771;DHT22;7477;45.222;5.688;2023-05-10T18:23:23;15.00;95.20
14771;DHT22;7477;45.222;5.688;2023-05-10T18:26:42;15.00;95.30
14771;DHT22;7477;45.222;5.688;2023-05-10T18:30:02;14.90;95.50
14771;DHT22;7477;45.222;5.688;2023-05-10T18:33:22;14.90;95.90
14771;DHT22;7477;45.222;5.688;2023-05-10T18:36:41;14.90;95.80
14771;DHT22;7477;45.222;5.688;2023-05-10T18:40:02;14.80;95.30
14771;DHT22;7477;45.222;5.688;2023-05-10T18:43:23;14.70;95.20
14771;DHT22;7477;45.222;5.688;2023-05-10T18:46:42;14.70;95.30
14771;DHT22;7477;45.222;5.688;2023-05-10T18:50:03;14.50;96.00
14771;DHT22;7477;45.222;5.688;2023-05-10T18:53:23;14.40;96.00
14771;DHT22;7477;45.222;5.688;2023-05-10T18:56:42;14.40;96.40
14771;DHT22;7477;45.222;5.688;2023-05-10T19:00:05;14.20;96.70
14771;DHT22;7477;45.222;5.688;2023-05-10T19:03:28;14.20;96.80
14771;DHT22;7477;45.222;5.688;2023-05-10T19:06:47;14.20;96.80
14771;DHT22;7477;45.222;5.688;2023-05-10T19:10:07;14.10;96.80
14771;DHT22;7477;45.222;5.688;2023-05-10T19:13:26;13.90;97.10
14771;DHT22;7477;45.222;5.688;2023-05-10T19:16:47;13.90;97.30
14771;DHT22;7477;45.222;5.688;2023-05-10T19:20:06;13.80;97.00
14771;DHT22;7477;45.222;5.688;2023-05-10T19:23:25;13.80;97.00
14771;DHT22;7477;45.222;5.688;2023-05-10T19:26:44;13.70;96.90
14771;DHT22;7477;45.222;5.688;2023-05-10T19:30:05;13.70;97.40
14771;DHT22;7477;45.222;5.688;2023-05-10T19:33:24;13.60;97.00
14771;DHT22;7477;45.222;5.688;2023-05-10T19:36:44;13.70;96.20
14771;DHT22;7477;45.222;5.688;2023-05-10T19:40:04;13.70;95.90
14771;DHT22;7477;45.222;5.688;2023-05-10T19:43:27;13.70;96.10
14771;DHT22;7477;45.222;5.688;2023-05-10T19:46:47;13.50;96.60
14771;DHT22;7477;45.222;5.688;2023-05-10T19:50:06;13.60;97.00
14771;DHT22;7477;45.222;5.688;2023-05-10T19:53:26;13.60;97.30
14771;DHT22;7477;45.222;5.688;2023-05-10T19:56:46;13.50;96.80
14771;DHT22;7477;45.222;5.688;2023-05-10T20:00:05;13.50;96.70
14771;DHT22;7477;45.222;5.688;2023-05-10T20:03:25;13.50;96.80
14771;DHT22;7477;45.222;5.688;2023-05-10T20:06:45;13.50;96.70
14771;DHT22;7477;45.222;5.688;2023-05-10T20:10:04;13.60;96.70
14771;DHT22;7477;45.222;5.688;2023-05-10T20:13:24;13.50;96.80
14771;DHT22;7477;45.222;5.688;2023-05-10T20:16:43;13.50;97.10
14771;DHT22;7477;45.222;5.688;2023-05-10T20:20:02;13.40;97.30
14771;DHT22;7477;45.222;5.688;2023-05-10T20:23:22;13.40;97.50
14771;DHT22;7477;45.222;5.688;2023-05-10T20:26:41;13.30;97.80
14771;DHT22;7477;45.222;5.688;2023-05-10T20:30:00;13.30;97.40
14771;DHT22;7477;45.222;5.688;2023-05-10T20:33:21;13.30;97.50
14771;DHT22;7477;45.222;5.688;2023-05-10T20:36:41;13.20;97.50
14771;DHT22;7477;45.222;5.688;2023-05-10T20:40:00;13.20;97.40
14771;DHT22;7477;45.222;5.688;2023-05-10T20:43:19;13.30;97.40
14771;DHT22;7477;45.222;5.688;2023-05-10T20:46:39;13.30;97.20
14771;DHT22;7477;45.222;5.688;2023-05-10T20:49:58;13.30;97.20
14771;DHT22;7477;45.222;5.688;2023-05-10T20:53:18;13.20;97.30
14771;DHT22;7477;45.222;5.688;2023-05-10T20:56:37;13.20;97.50
14771;DHT22;7477;45.222;5.688;2023-05-10T20:59:56;13.20;97.70
14771;DHT22;7477;45.222;5.688;2023-05-10T21:03:15;13.20;97.60
14771;DHT22;7477;45.222;5.688;2023-05-10T21:06:35;13.30;97.60
14771;DHT22;7477;45.222;5.688;2023-05-10T21:09:53;13.20;97.70
14771;DHT22;7477;45.222;5.688;2023-05-10T21:13:13;13.20;97.80
14771;DHT22;7477;45.222;5.688;2023-05-10T21:16:33;13.20;97.80
14771;DHT22;7477;45.222;5.688;2023-05-10T21:19:52;13.20;98.40
14771;DHT22;7477;45.222;5.688;2023-05-10T21:23:11;13.10;98.80
14771;DHT22;7477;45.222;5.688;2023-05-10T21:26:30;13.10;98.90
14771;DHT22;7477;45.222;5.688;2023-05-10T21:29:50;13.00;98.80
14771;DHT22;7477;45.222;5.688;2023-05-10T21:33:10;13.00;98.90
14771;DHT22;7477;45.222;5.688;2023-05-10T21:36:29;12.90;98.70
14771;DHT22;7477;45.222;5.688;2023-05-10T21:39:48;13.00;98.90
14771;DHT22;7477;45.222;5.688;2023-05-10T21:43:07;13.00;99.00
14771;DHT22;7477;45.222;5.688;2023-05-10T21:46:27;13.10;99.30
14771;DHT22;7477;45.222;5.688;2023-05-10T21:49:46;13.10;99.90
14771;DHT22;7477;45.222;5.688;2023-05-10T21:53:06;13.10;99.90